createdAt,value
2022-11-05T00:00:32.569Z,101386.03
2022-11-05T00:03:18.532Z,101381.31
2022-11-05T00:06:07.148Z,101379.28
2022-11-05T00:08:52.955Z,101376.72
2022-11-05T00:11:40.049Z,101384.97
2022-11-05T00:14:25.837Z,101388.22
2022-11-05T00:16:52.899Z,101380.38
2022-11-05T00:19:19.893Z,101381.97
2022-11-05T00:22:05.440Z,101381.75
2022-11-05T00:24:51.336Z,101395.16
2022-11-05T00:27:18.363Z,101397.44
2022-11-05T00:29:45.391Z,101397.09
2022-11-05T00:32:12.427Z,101401.19
2022-11-05T00:34:39.396Z,101412.06
2022-11-05T00:37:06.419Z,101411.97
2022-11-05T00:39:33.779Z,101405.97
2022-11-05T00:42:19.709Z,101390.00
2022-11-05T00:45:02.646Z,101420.13
2022-11-05T00:47:49.634Z,101420.00
2022-11-05T00:50:17.499Z,101422.59
2022-11-05T00:52:56.382Z,101424.31
2022-11-05T00:55:28.350Z,101425.88
2022-11-05T00:57:56.616Z,101427.41
2022-11-05T01:00:26.221Z,101429.03
2022-11-05T01:02:53.535Z,101433.28
2022-11-05T01:05:20.648Z,101436.88
2022-11-05T01:07:47.669Z,101434.97
2022-11-05T01:10:14.741Z,101440.34
2022-11-05T01:12:41.772Z,101444.34
2022-11-05T01:15:09.764Z,101447.66
2022-11-05T01:17:36.758Z,101450.41
2022-11-05T01:20:04.390Z,101446.78
2022-11-05T01:22:31.583Z,101446.56
2022-11-05T01:24:58.585Z,101443.34
2022-11-05T01:27:25.636Z,101435.22
2022-11-05T01:29:52.725Z,101441.56
2022-11-05T01:32:19.700Z,101451.72
2022-11-05T01:34:46.755Z,101434.25
2022-11-05T01:37:13.757Z,101450.63
2022-11-05T01:39:40.746Z,101445.47
2022-11-05T01:42:22.906Z,101457.25
2022-11-05T01:44:57.668Z,101455.28
2022-11-05T01:47:59.866Z,101454.41
2022-11-05T01:50:48.454Z,101457.69
2022-11-05T01:53:40.500Z,101460.69
2022-11-05T01:56:21.441Z,101456.59
2022-11-05T01:58:53.972Z,101451.81
2022-11-05T02:01:21.237Z,101432.38
2022-11-05T02:03:50.116Z,101442.97
2022-11-05T02:06:17.918Z,101425.78
2022-11-05T02:09:00.506Z,101438.94
2022-11-05T02:11:28.721Z,101434.66
2022-11-05T02:13:55.783Z,101423.16
2022-11-05T02:16:41.328Z,101432.81
2022-11-05T02:19:33.627Z,101428.44
2022-11-05T02:22:15.926Z,101433.50
2022-11-05T02:25:27.843Z,101427.41
2022-11-05T02:28:23.226Z,101427.25
2022-11-05T02:31:02.811Z,101424.53
2022-11-05T02:34:07.765Z,101422.44
2022-11-05T02:36:56.557Z,101430.94
2022-11-05T02:39:49.766Z,101429.81
2022-11-05T02:42:35.094Z,101429.66
2022-11-05T02:45:26.589Z,101438.34
2022-11-05T02:48:17.586Z,101439.72
2022-11-05T02:50:53.813Z,101432.50
2022-11-05T02:53:33.780Z,101431.31
2022-11-05T02:56:05.528Z,101433.81
2022-11-05T02:58:34.488Z,101436.22
2022-11-05T03:01:06.650Z,101425.00
2022-11-05T03:03:39.950Z,101421.78
2022-11-05T03:06:25.427Z,101423.47
2022-11-05T03:09:01.308Z,101425.09
2022-11-05T03:11:32.151Z,101414.41
2022-11-05T03:14:35.957Z,101418.84
2022-11-05T03:17:30.672Z,101425.09
2022-11-05T03:20:09.686Z,101415.47
2022-11-05T03:23:05.162Z,101428.44
2022-11-05T03:25:37.285Z,101416.03
2022-11-05T03:28:07.690Z,101425.00
2022-11-05T03:30:38.841Z,101429.91
2022-11-05T03:33:12.871Z,101420.13
2022-11-05T03:35:45.934Z,101430.41
2022-11-05T03:38:19.696Z,101433.03
2022-11-05T03:40:49.487Z,101445.78
2022-11-05T03:43:18.144Z,101437.84
2022-11-05T03:45:54.922Z,101432.88
2022-11-05T03:48:26.370Z,101437.13
2022-11-05T03:51:02.728Z,101438.72
2022-11-05T03:53:34.978Z,101431.53
2022-11-05T03:56:27.752Z,101451.25
2022-11-05T03:58:59.064Z,101448.69
2022-11-05T04:01:27.472Z,101445.63
2022-11-05T04:03:54.538Z,101460.16
2022-11-05T04:06:40.139Z,101458.38
2022-11-05T04:09:26.080Z,101457.34
2022-11-05T04:12:11.610Z,101453.06
2022-11-05T04:14:39.571Z,101449.72
2022-11-05T04:17:06.588Z,101461.91
2022-11-05T04:19:53.998Z,101459.25
2022-11-05T04:22:40.369Z,101460.16
2022-11-05T04:25:08.067Z,101462.59
2022-11-05T04:27:35.676Z,101461.50
2022-11-05T04:30:18.489Z,101466.69
2022-11-05T04:32:59.663Z,101468.31
2022-11-05T04:35:29.537Z,101460.41
2022-11-05T04:37:56.624Z,101467.34
2022-11-05T04:40:24.101Z,101467.28
2022-11-05T04:42:51.123Z,101461.13
2022-11-05T04:45:18.123Z,101466.25
2022-11-05T04:47:45.103Z,101463.75
2022-11-05T04:50:13.187Z,101464.56
2022-11-05T04:52:40.563Z,101465.53
2022-11-05T04:55:08.600Z,101462.16
2022-11-05T04:57:35.753Z,101464.38
2022-11-05T05:00:03.170Z,101466.69
2022-11-05T05:02:30.456Z,101476.63
2022-11-05T05:04:57.858Z,101464.28
2022-11-05T05:07:25.790Z,101466.56
2022-11-05T05:09:54.489Z,101464.00
2022-11-05T05:12:22.708Z,101465.44
2022-11-05T05:14:49.802Z,101475.19
2022-11-05T05:17:16.949Z,101451.50
2022-11-05T05:20:03.046Z,101469.13
2022-11-05T05:22:30.212Z,101460.84
2022-11-05T05:24:57.575Z,101455.69
2022-11-05T05:27:25.911Z,101463.81
2022-11-05T05:29:52.895Z,101461.47
2022-11-05T05:32:19.890Z,101446.69
2022-11-05T05:34:46.871Z,101452.78
2022-11-05T05:37:13.863Z,101463.00
2022-11-05T05:39:40.877Z,101472.31
2022-11-05T05:42:07.871Z,101470.31
2022-11-05T05:44:34.852Z,101459.81
2022-11-05T05:47:01.840Z,101471.28
2022-11-05T05:49:29.117Z,101425.25
2022-11-05T05:51:56.779Z,101468.63
2022-11-05T05:54:27.735Z,101478.25
2022-11-05T05:56:59.107Z,101483.06
2022-11-05T05:59:26.101Z,101484.97
2022-11-05T06:01:53.542Z,101481.63
2022-11-05T06:04:20.759Z,101479.72
2022-11-05T06:06:48.227Z,101485.84
2022-11-05T06:09:15.470Z,101494.91
2022-11-05T06:11:42.605Z,101493.19
2022-11-05T06:14:11.532Z,101503.47
2022-11-05T06:16:39.748Z,101510.53
2022-11-05T06:19:07.799Z,101498.50
2022-11-05T06:21:34.907Z,101512.28
2022-11-05T06:24:03.043Z,101503.56
2022-11-05T06:26:30.755Z,101501.97
2022-11-05T06:28:57.950Z,101498.44
2022-11-05T06:31:25.069Z,101505.81
2022-11-05T06:33:52.293Z,101510.84
2022-11-05T06:36:19.762Z,101526.50
2022-11-05T06:38:47.058Z,101519.69
2022-11-05T06:41:14.316Z,101525.38
2022-11-05T06:43:41.423Z,101513.03
2022-11-05T06:46:10.365Z,101521.03
2022-11-05T06:48:38.123Z,101523.19
2022-11-05T06:51:07.157Z,101523.47
2022-11-05T06:53:34.642Z,101526.28
2022-11-05T06:56:03.263Z,101530.78
2022-11-05T06:58:31.037Z,101534.50
2022-11-05T07:01:09.817Z,101527.94
2022-11-05T07:03:37.864Z,101536.59
2022-11-05T07:06:07.039Z,101527.34
2022-11-05T07:08:36.120Z,101526.78
2022-11-05T07:11:04.512Z,101529.34
2022-11-05T07:13:31.815Z,101532.56
2022-11-05T07:15:59.032Z,101520.31
2022-11-05T07:18:26.245Z,101541.53
2022-11-05T07:20:53.206Z,101541.38
2022-11-05T07:23:20.279Z,101542.41
2022-11-05T07:25:47.303Z,101542.34
2022-11-05T07:28:14.430Z,101543.94
2022-11-05T07:30:41.661Z,101540.56
2022-11-05T07:33:09.081Z,101533.69
2022-11-05T07:35:36.499Z,101520.66
2022-11-05T07:38:03.935Z,101535.75
2022-11-05T07:40:31.188Z,101535.81
2022-11-05T07:43:00.646Z,101537.78
2022-11-05T07:45:29.271Z,101539.19
2022-11-05T07:48:00.350Z,101551.31
2022-11-05T07:50:29.859Z,101545.38
2022-11-05T07:53:23.298Z,101549.53
2022-11-05T07:55:52.455Z,101542.72
2022-11-05T07:58:19.473Z,101540.88
2022-11-05T08:00:46.572Z,101549.56
2022-11-05T08:03:15.904Z,101556.22
2022-11-05T08:05:46.159Z,101563.28
2022-11-05T08:08:16.892Z,101562.63
2022-11-05T08:10:44.320Z,101554.28
2022-11-05T08:13:12.942Z,101557.06
2022-11-05T08:15:40.900Z,101554.88
2022-11-05T08:18:11.457Z,101553.41
2022-11-05T08:20:40.147Z,101552.66
2022-11-05T08:23:07.755Z,101552.94
2022-11-05T08:25:34.903Z,101547.28
2022-11-05T08:28:11.325Z,101544.75
2022-11-05T08:30:38.556Z,101544.16
2022-11-05T08:33:09.058Z,101549.78
2022-11-05T08:35:37.225Z,101544.06
2022-11-05T08:38:06.421Z,101549.59
2022-11-05T08:40:35.398Z,101548.13
2022-11-05T08:43:04.515Z,101545.00
2022-11-05T08:45:31.864Z,101550.63
2022-11-05T08:48:00.531Z,101550.94
2022-11-05T08:50:28.314Z,101559.47
2022-11-05T08:52:55.660Z,101560.63
2022-11-05T08:55:23.093Z,101561.09
2022-11-05T08:57:55.663Z,101554.31
2022-11-05T09:00:22.775Z,101554.91
2022-11-05T09:02:49.755Z,101554.72
2022-11-05T09:05:16.797Z,101553.00
2022-11-05T09:07:43.826Z,101557.53
2022-11-05T09:10:10.796Z,101545.59
2022-11-05T09:12:37.837Z,101555.47
2022-11-05T09:15:05.093Z,101554.09
2022-11-05T09:17:32.088Z,101557.16
2022-11-05T09:19:59.524Z,101560.13
2022-11-05T09:22:26.560Z,101557.72
2022-11-05T09:24:53.775Z,101552.13
2022-11-05T09:27:20.964Z,101549.13
2022-11-05T09:29:48.009Z,101547.44
2022-11-05T09:32:19.012Z,101552.78
2022-11-05T09:34:48.460Z,101558.38
2022-11-05T09:37:15.732Z,101556.97
2022-11-05T09:39:42.751Z,101563.56
2022-11-05T09:42:13.336Z,101549.84
2022-11-05T09:44:44.734Z,101561.38
2022-11-05T09:47:40.096Z,101567.78
2022-11-05T09:50:14.217Z,101562.66
2022-11-05T09:52:41.416Z,101569.63
2022-11-05T09:55:42.695Z,101564.34
2022-11-05T09:58:36.608Z,101560.19
2022-11-05T10:01:10.767Z,101569.09
2022-11-05T10:03:45.962Z,101571.94
2022-11-05T10:06:19.498Z,101579.06
2022-11-05T10:08:51.513Z,101576.50
2022-11-05T10:11:28.199Z,101577.31
2022-11-05T10:14:07.556Z,101589.53
2022-11-05T10:16:39.023Z,101583.50
2022-11-05T10:19:24.438Z,101590.69
2022-11-05T10:22:13.537Z,101585.72
2022-11-05T10:24:43.041Z,101582.84
2022-11-05T10:27:32.946Z,101593.53
2022-11-05T10:30:00.412Z,101590.31
2022-11-05T10:32:37.396Z,101587.25
2022-11-05T10:35:07.579Z,101592.81
2022-11-05T10:37:40.682Z,101592.06
2022-11-05T10:40:14.051Z,101604.56
2022-11-05T10:42:57.727Z,101593.97
2022-11-05T10:45:34.761Z,101590.72
2022-11-05T10:48:11.359Z,101582.81
2022-11-05T10:50:39.665Z,101588.38
2022-11-05T10:53:16.550Z,101589.31
2022-11-05T10:55:49.053Z,101597.91
2022-11-05T10:58:15.996Z,101590.25
2022-11-05T11:00:45.386Z,101598.91
2022-11-05T11:03:33.332Z,101603.88
2022-11-05T11:06:03.033Z,101597.91
2022-11-05T11:08:33.227Z,101589.28
2022-11-05T11:11:05.168Z,101600.75
2022-11-05T11:14:13.429Z,101600.75
2022-11-05T11:16:45.978Z,101597.91
2022-11-05T11:19:26.277Z,101595.63
2022-11-05T11:22:05.370Z,101592.44
2022-11-05T11:24:43.804Z,101589.56
2022-11-05T11:27:40.201Z,101597.47
2022-11-05T11:30:07.653Z,101599.91
2022-11-05T11:32:39.182Z,101579.09
2022-11-05T11:35:18.500Z,101598.56
2022-11-05T11:37:46.616Z,101600.25
2022-11-05T11:40:29.303Z,101601.91
2022-11-05T11:43:00.313Z,101590.66
2022-11-05T11:45:32.265Z,101593.22
2022-11-05T11:48:03.070Z,101599.22
2022-11-05T11:50:43.997Z,101601.91
2022-11-05T11:53:20.623Z,101601.28
2022-11-05T11:56:03.109Z,101587.47
2022-11-05T11:58:41.879Z,101590.66
2022-11-05T12:01:30.461Z,101592.28
2022-11-05T12:04:09.438Z,101585.34
2022-11-05T12:06:45.023Z,101588.69
2022-11-05T12:09:47.833Z,101575.59
2022-11-05T12:12:20.527Z,101587.06
2022-11-05T12:14:53.311Z,101583.19
2022-11-05T12:17:53.456Z,101593.84
2022-11-05T12:20:23.148Z,101582.84
2022-11-05T12:23:27.848Z,101577.28
2022-11-05T12:25:54.698Z,101575.66
2022-11-05T12:29:17.300Z,101582.47
2022-11-05T12:31:51.530Z,101578.31
2022-11-05T12:34:49.769Z,101580.19
2022-11-05T12:37:48.717Z,101572.00
2022-11-05T12:40:52.066Z,101569.34
2022-11-05T12:43:32.006Z,101564.44
2022-11-05T12:46:20.745Z,101566.47
2022-11-05T12:48:50.429Z,101573.44
2022-11-05T12:51:40.999Z,101555.00
2022-11-05T12:54:22.986Z,101556.91
2022-11-05T12:56:58.015Z,101562.72
2022-11-05T12:59:39.895Z,101554.06
2022-11-05T13:02:40.898Z,101555.84
2022-11-05T13:05:20.809Z,101541.94
2022-11-05T13:07:52.730Z,101549.91
2022-11-05T13:10:33.164Z,101540.31
2022-11-05T13:13:18.692Z,101548.09
2022-11-05T13:16:04.866Z,101531.63
2022-11-05T13:18:37.349Z,101537.06
2022-11-05T13:21:07.584Z,101525.63
2022-11-05T13:23:55.588Z,101509.94
2022-11-05T13:26:45.848Z,101516.16
2022-11-05T13:29:36.907Z,101510.16
2022-11-05T13:32:31.494Z,101506.63
2022-11-05T13:35:01.009Z,101491.97
2022-11-05T13:37:51.176Z,101507.91
2022-11-05T13:40:25.602Z,101514.03
2022-11-05T13:43:04.634Z,101519.78
2022-11-05T13:45:53.453Z,101499.03
2022-11-05T13:48:35.439Z,101512.38
2022-11-05T13:51:27.832Z,101506.59
2022-11-05T13:54:19.333Z,101506.97
2022-11-05T13:57:34.291Z,101503.59
2022-11-05T14:00:01.105Z,101505.19
2022-11-05T14:02:49.729Z,101509.63
2022-11-05T14:05:28.137Z,101517.19
2022-11-05T14:07:57.100Z,101504.84
2022-11-05T14:10:44.517Z,101503.00
2022-11-05T14:13:26.644Z,101516.59
2022-11-05T14:16:18.658Z,101513.16
2022-11-05T14:18:48.469Z,101510.59
2022-11-05T14:21:27.741Z,101514.94
2022-11-05T14:24:00.079Z,101521.78
2022-11-05T14:26:29.186Z,101512.88
2022-11-05T14:28:59.185Z,101515.50
2022-11-05T14:34:47.204Z,101511.63
2022-11-05T14:37:22.684Z,101507.19
2022-11-05T14:39:49.973Z,101509.66
2022-11-05T14:42:29.616Z,101504.44
2022-11-05T14:45:21.636Z,101504.34
2022-11-05T14:47:55.286Z,101505.78
2022-11-05T14:50:39.043Z,101509.03
2022-11-05T14:53:23.515Z,101503.84
2022-11-05T14:56:03.348Z,101500.16
2022-11-05T14:58:31.436Z,101511.41
2022-11-05T15:01:00.786Z,101494.03
2022-11-05T15:03:29.744Z,101505.34
2022-11-05T15:06:08.473Z,101504.38
2022-11-05T15:08:38.468Z,101511.25
2022-11-05T15:11:33.223Z,101511.94
2022-11-05T15:14:20.657Z,101505.78
2022-11-05T15:16:52.164Z,101507.50
2022-11-05T15:19:21.959Z,101500.63
2022-11-05T15:21:49.398Z,101495.13
2022-11-05T15:24:19.152Z,101497.88
2022-11-05T15:27:04.182Z,101503.88
2022-11-05T15:29:33.187Z,101501.25
2022-11-05T15:32:00.632Z,101490.63
2022-11-05T15:34:33.431Z,101489.75
2022-11-05T15:37:04.067Z,101490.72
2022-11-05T15:39:40.500Z,101481.84
2022-11-05T15:42:14.168Z,101488.81
2022-11-05T15:44:46.916Z,101494.09
2022-11-05T15:47:18.231Z,101486.09
2022-11-05T15:49:51.566Z,101488.72
2022-11-05T15:52:21.394Z,101471.34
2022-11-05T15:55:17.208Z,101477.34
2022-11-05T15:57:51.329Z,101483.47
2022-11-05T16:00:24.436Z,101473.00
2022-11-05T16:03:02.287Z,101480.09
2022-11-05T16:05:33.481Z,101483.59
2022-11-05T16:08:04.376Z,101477.53
2022-11-05T16:10:35.204Z,101481.72
2022-11-05T16:13:38.816Z,101485.84
2022-11-05T16:16:14.672Z,101480.56
2022-11-05T16:18:43.054Z,101474.47
2022-11-05T16:21:17.499Z,101472.81
2022-11-05T16:23:56.632Z,101469.13
2022-11-05T16:26:55.901Z,101476.97
2022-11-05T16:29:27.706Z,101475.00
2022-11-05T16:31:56.830Z,101460.28
2022-11-05T16:34:40.073Z,101449.69
2022-11-05T16:37:11.609Z,101466.22
2022-11-05T16:39:38.607Z,101445.38
2022-11-05T16:42:36.060Z,101450.72
2022-11-05T16:45:04.273Z,101454.16
2022-11-05T16:47:31.517Z,101461.81
2022-11-05T16:49:59.060Z,101456.34
2022-11-05T16:52:26.034Z,101469.34
2022-11-05T16:54:53.220Z,101466.00
2022-11-05T16:57:29.167Z,101467.75
2022-11-05T16:59:57.180Z,101458.88
2022-11-05T17:02:24.581Z,101472.81
2022-11-05T17:04:51.853Z,101458.03
2022-11-05T17:07:19.011Z,101463.34
2022-11-05T17:09:45.987Z,101462.34
2022-11-05T17:12:13.573Z,101456.91
2022-11-05T17:14:40.883Z,101460.66
2022-11-05T17:17:07.951Z,101459.50
2022-11-05T17:19:34.977Z,101462.25
2022-11-05T17:22:01.970Z,101454.38
2022-11-05T17:24:29.213Z,101467.38
2022-11-05T17:26:56.225Z,101468.19
2022-11-05T17:29:23.220Z,101460.25
2022-11-05T17:31:50.192Z,101469.00
2022-11-05T17:34:17.561Z,101463.88
2022-11-05T17:36:44.600Z,101458.78
2022-11-05T17:39:12.704Z,101464.81
2022-11-05T17:41:39.820Z,101463.09
2022-11-05T17:44:06.813Z,101464.81
2022-11-05T17:46:34.739Z,101483.84
2022-11-05T17:49:01.865Z,101476.03
2022-11-05T17:51:29.121Z,101483.88
2022-11-05T17:53:56.130Z,101492.50
2022-11-05T17:56:33.455Z,101489.00
2022-11-05T17:59:03.441Z,101489.06
2022-11-05T18:01:33.546Z,101489.88
2022-11-05T18:04:07.123Z,101495.03
2022-11-05T18:06:39.671Z,101489.84
2022-11-05T18:09:08.636Z,101491.53
2022-11-05T18:11:36.949Z,101486.34
2022-11-05T18:14:05.004Z,101489.09
2022-11-05T18:16:32.717Z,101481.34
2022-11-05T18:19:00.053Z,101472.94
2022-11-05T18:21:27.062Z,101466.81
2022-11-05T18:23:54.178Z,101473.59
2022-11-05T18:26:21.169Z,101465.59
2022-11-05T18:28:48.183Z,101464.81
2022-11-05T18:31:18.626Z,101457.84
2022-11-05T18:33:46.905Z,101457.03
2022-11-05T18:36:25.796Z,101459.47
2022-11-05T18:38:52.853Z,101450.78
2022-11-05T18:41:21.119Z,101461.88
2022-11-05T18:43:48.158Z,101460.31
2022-11-05T18:46:35.799Z,101447.38
2022-11-05T18:49:02.477Z,101442.09
2022-11-05T18:51:29.818Z,101438.59
2022-11-05T18:53:56.873Z,101444.50
2022-11-05T18:56:24.316Z,101442.91
2022-11-05T18:59:14.591Z,101444.81
2022-11-05T19:01:41.739Z,101444.81
2022-11-05T19:04:08.915Z,101430.06
2022-11-05T19:06:36.772Z,101422.38
2022-11-05T19:09:05.735Z,101429.25
2022-11-05T19:11:33.294Z,101417.19
2022-11-05T19:14:00.381Z,101432.69
2022-11-05T19:16:29.368Z,101424.94
2022-11-05T19:19:01.277Z,101429.13
2022-11-05T19:21:29.359Z,101404.19
2022-11-05T19:23:59.999Z,101400.00
2022-11-05T19:26:29.026Z,101375.94
2022-11-05T19:29:01.657Z,101390.59
2022-11-05T19:31:30.150Z,101380.22
2022-11-05T19:33:58.169Z,101362.00
2022-11-05T19:36:25.393Z,101379.13
2022-11-05T19:39:08.699Z,101378.16
2022-11-05T19:41:35.814Z,101373.78
2022-11-05T19:44:03.599Z,101369.28
2022-11-05T19:46:31.576Z,101393.59
2022-11-05T19:49:00.463Z,101373.47
2022-11-05T19:51:30.460Z,101380.50
2022-11-05T19:53:59.799Z,101386.56
2022-11-05T19:56:29.795Z,101390.16
2022-11-05T19:58:58.100Z,101378.13
2022-11-05T20:01:27.188Z,101389.47
2022-11-05T20:03:55.736Z,101390.28
2022-11-05T20:06:28.962Z,101380.91
2022-11-05T20:11:56.491Z,101385.28
2022-11-05T20:14:25.762Z,101381.84
2022-11-05T20:16:53.321Z,101382.69
2022-11-05T20:19:22.029Z,101381.19
2022-11-05T20:21:49.212Z,101365.72
2022-11-05T20:24:24.056Z,101371.59
2022-11-05T20:26:56.256Z,101381.88
2022-11-05T20:29:24.165Z,101382.78
2022-11-05T20:31:53.374Z,101372.44
2022-11-05T20:34:20.412Z,101362.09
2022-11-05T20:36:47.504Z,101371.47
2022-11-05T20:39:18.189Z,101379.22
2022-11-05T20:41:45.154Z,101371.31
2022-11-05T20:44:12.413Z,101374.88
2022-11-05T20:46:39.846Z,101367.75
2022-11-05T20:49:06.909Z,101364.34
2022-11-05T20:51:34.482Z,101370.53
2022-11-05T20:54:02.080Z,101370.56
2022-11-05T20:56:32.534Z,101376.47
2022-11-05T20:59:00.303Z,101369.44
2022-11-05T21:01:29.648Z,101368.66
2022-11-05T21:03:57.612Z,101374.59
2022-11-05T21:06:25.034Z,101364.69
2022-11-05T21:08:52.664Z,101375.22
2022-11-05T21:11:20.169Z,101382.03
2022-11-05T21:13:47.625Z,101372.31
2022-11-05T21:16:18.500Z,101392.06
2022-11-05T21:18:46.658Z,101380.75
2022-11-05T21:21:19.836Z,101379.88
2022-11-05T21:23:47.439Z,101383.38
2022-11-05T21:26:16.676Z,101363.22
2022-11-05T21:28:43.877Z,101375.59
2022-11-05T21:31:11.076Z,101377.25
2022-11-05T21:33:38.354Z,101384.94
2022-11-05T21:36:10.918Z,101380.44
2022-11-05T21:38:38.913Z,101384.63
2022-11-05T21:41:07.484Z,101386.56
2022-11-05T21:43:34.823Z,101364.06
2022-11-05T21:46:03.542Z,101362.38
2022-11-05T21:48:31.892Z,101368.47
2022-11-05T21:51:18.303Z,101375.44
2022-11-05T21:54:03.773Z,101370.31
2022-11-05T21:56:50.177Z,101356.63
2022-11-05T21:59:38.236Z,101358.44
2022-11-05T22:02:06.012Z,101352.38
2022-11-05T22:04:36.748Z,101348.81
2022-11-05T22:07:05.407Z,101347.22
2022-11-05T22:09:35.064Z,101343.19
2022-11-05T22:12:02.271Z,101339.38
2022-11-05T22:14:29.922Z,101350.94
2022-11-05T22:16:57.447Z,101349.94
2022-11-05T22:19:24.922Z,101348.06
2022-11-05T22:21:51.985Z,101336.88
2022-11-05T22:24:19.837Z,101341.31
2022-11-05T22:26:47.166Z,101341.09
2022-11-05T22:29:14.733Z,101334.06
2022-11-05T22:31:42.638Z,101322.88
2022-11-05T22:34:09.928Z,101316.91
2022-11-05T22:36:37.254Z,101307.53
2022-11-05T22:39:05.417Z,101319.56
2022-11-05T22:41:33.476Z,101329.84
2022-11-05T22:44:00.622Z,101323.09
2022-11-05T22:46:28.209Z,101313.31
2022-11-05T22:48:59.244Z,101328.34
2022-11-05T22:51:29.411Z,101324.84
2022-11-05T22:53:56.886Z,101320.53
2022-11-05T22:56:26.988Z,101324.06
2022-11-05T22:58:54.716Z,101322.25
2022-11-05T23:01:23.153Z,101324.84
2022-11-05T23:03:52.225Z,101325.66
2022-11-05T23:06:41.009Z,101313.66
2022-11-05T23:09:47.826Z,101318.13
2022-11-05T23:12:27.045Z,101307.03
2022-11-05T23:14:55.555Z,101308.94
2022-11-05T23:17:41.986Z,101300.28
2022-11-05T23:20:33.355Z,101290.50
2022-11-05T23:23:19.257Z,101294.19
2022-11-05T23:25:46.387Z,101295.81
2022-11-05T23:28:14.284Z,101291.47
2022-11-05T23:31:03.428Z,101294.84
2022-11-05T23:33:34.377Z,101285.16
2022-11-05T23:36:20.224Z,101284.38
2022-11-05T23:38:47.264Z,101287.06
2022-11-05T23:41:32.645Z,101288.59
2022-11-05T23:44:21.096Z,101295.44
2022-11-05T23:47:06.588Z,101296.22
2022-11-05T23:49:33.635Z,101289.97
2022-11-05T23:52:00.659Z,101288.25
2022-11-05T23:54:27.735Z,101285.97
2022-11-05T23:56:54.807Z,101281.72
2022-11-05T23:59:21.870Z,101271.38
